Time;durP1;ratioP1;P1;durP2;ratioP2;P2;SDS_P1;SDS_P2;PMS_P1;PMS_P2;Temp;Humidity;BMP_temperature;BMP_pressure;BME280_temperature;BME280_humidity;BME280_pressure;Samples;Min_cycle;Max_cycle;Signal;HPM_P1;HPM_P2
2021/10/21 00:02:33;;;;;;;5.10;1.35;;;13.40;99.90;;;;;;20566494;28;20068;-86
2021/10/21 00:12:34;;;;;;;4.78;1.48;;;13.50;99.90;;;;;;20656893;28;20050;-87
2021/10/21 00:22:37;;;;;;;3.53;2.13;;;13.60;99.90;;;;;;20614428;28;20034;-86
2021/10/21 00:32:38;;;;;;;4.57;1.60;;;13.90;99.90;;;;;;20612840;28;20047;-86
2021/10/21 00:42:39;;;;;;;4.15;1.00;;;13.90;99.90;;;;;;20612623;28;20050;-85
2021/10/21 00:52:40;;;;;;;2.50;1.00;;;13.90;99.90;;;;;;20632840;28;20395;-86
2021/10/21 01:13:32;;;;;;;1.45;0.22;;;13.40;99.90;;;;;;20464397;28;20055;-46
2021/10/21 01:23:35;;;;;;;2.42;0.28;;;12.30;99.90;;;;;;20491682;28;20038;-46
2021/10/21 01:33:37;;;;;;;0.38;0.13;;;12.10;99.90;;;;;;20483210;28;20365;-44
2021/10/21 01:43:43;;;;;;;1.67;0.20;;;11.80;99.90;;;;;;20470401;28;20038;-43
2021/10/21 01:53:44;;;;;;;1.95;0.28;;;11.70;99.90;;;;;;20462135;28;20046;-42
2021/10/21 02:03:45;;;;;;;0.85;0.20;;;11.60;99.90;;;;;;20407876;28;20043;-42
2021/10/21 02:13:47;;;;;;;0.55;0.22;;;11.70;99.90;;;;;;20418501;28;20491;-42
2021/10/21 02:23:48;;;;;;;3.80;1.33;;;11.80;99.90;;;;;;20410684;28;20051;-42
2021/10/21 02:33:49;;;;;;;1.00;0.20;;;11.80;99.90;;;;;;20407150;28;20494;-42
2021/10/21 02:43:50;;;;;;;0.52;0.13;;;11.70;99.90;;;;;;20393916;28;20416;-42
2021/10/21 02:53:51;;;;;;;0.55;0.20;;;11.40;99.90;;;;;;20412948;28;20052;-42
2021/10/21 03:03:52;;;;;;;2.28;0.30;;;11.30;99.90;;;;;;20406011;28;20406;-42
2021/10/21 03:13:53;;;;;;;2.80;0.30;;;11.20;99.90;;;;;;20378741;28;20035;-42
2021/10/21 03:23:55;;;;;;;1.05;0.47;;;11.20;99.90;;;;;;20416633;28;20031;-42
2021/10/21 03:33:57;;;;;;;5.40;0.50;;;11.20;99.90;;;;;;20398244;28;20399;-42
2021/10/21 03:43:58;;;;;;;1.38;0.25;;;11.20;99.90;;;;;;20391567;28;20043;-42
2021/10/21 03:53:59;;;;;;;1.05;0.45;;;11.20;99.90;;;;;;20390732;28;20782;-42
2021/10/21 04:04:00;;;;;;;1.02;0.20;;;11.20;99.90;;;;;;20404217;28;20035;-42
2021/10/21 04:14:02;;;;;;;2.15;0.30;;;11.20;99.90;;;;;;20403430;28;20607;-42
2021/10/21 04:24:03;;;;;;;0.70;0.20;;;11.40;99.90;;;;;;20382809;28;20092;-42
2021/10/21 04:34:04;;;;;;;1.77;0.40;;;11.30;99.90;;;;;;20387365;28;20039;-44
2021/10/21 04:44:05;;;;;;;1.17;0.45;;;11.40;99.90;;;;;;20391135;28;20054;-43
2021/10/21 04:54:06;;;;;;;2.15;0.10;;;11.20;99.90;;;;;;20385046;28;20063;-43
2021/10/21 05:04:09;;;;;;;0.10;0.00;;;11.20;99.90;;;;;;20391956;28;20514;-43
2021/10/21 05:14:10;;;;;;;0.00;0.00;;;10.90;99.90;;;;;;20410237;28;20070;-42
2021/10/21 05:24:11;;;;;;;0.73;0.20;;;10.80;99.90;;;;;;20407074;28;20062;-42
2021/10/21 05:34:12;;;;;;;1.20;0.50;;;10.60;99.90;;;;;;20396401;28;20055;-42
2021/10/21 05:44:20;;;;;;;1.75;0.68;;;10.60;99.90;;;;;;20398083;28;20046;-42
2021/10/21 05:54:22;;;;;;;4.38;0.28;;;10.60;99.90;;;;;;20412883;28;20047;-42
2021/10/21 06:04:24;;;;;;;2.00;0.20;;;10.50;99.90;;;;;;20395374;28;20133;-42
2021/10/21 06:14:26;;;;;;;3.30;1.15;;;10.40;99.90;;;;;;20396520;28;20047;-43
2021/10/21 06:24:28;;;;;;;0.47;0.10;;;10.30;99.90;;;;;;20417439;28;20035;-42
2021/10/21 06:34:29;;;;;;;0.80;0.30;;;10.30;99.90;;;;;;20413541;28;20506;-41
2021/10/21 06:44:30;;;;;;;4.47;0.50;;;10.30;99.90;;;;;;20386285;28;20040;-42
2021/10/21 06:54:31;;;;;;;2.22;0.20;;;10.50;99.90;;;;;;20403909;28;20050;-41
2021/10/21 07:04:32;;;;;;;4.38;0.73;;;10.50;99.90;;;;;;20411564;28;20071;-42
2021/10/21 07:14:33;;;;;;;2.47;0.50;;;10.50;99.90;;;;;;20381334;28;20425;-42
2021/10/21 07:24:34;;;;;;;5.50;1.13;;;10.70;99.90;;;;;;20383828;28;20039;-42
2021/10/21 07:34:36;;;;;;;4.03;1.60;;;10.60;99.90;;;;;;20405092;28;20042;-41
2021/10/21 07:44:41;;;;;;;2.67;1.10;;;10.60;99.90;;;;;;20391460;28;20161;-42
2021/10/21 07:54:42;;;;;;;4.00;0.63;;;10.60;99.90;;;;;;20413174;28;20043;-42
2021/10/21 08:04:43;;;;;;;5.28;0.95;;;10.80;99.90;;;;;;20405884;28;20087;-42
2021/10/21 08:14:44;;;;;;;3.75;0.70;;;11.00;99.90;;;;;;20405664;28;20051;-42
2021/10/21 08:24:46;;;;;;;2.47;1.40;;;11.20;99.90;;;;;;20409213;28;20039;-43
2021/10/21 08:34:47;;;;;;;2.13;0.65;;;11.20;99.90;;;;;;20389770;28;20054;-43
2021/10/21 08:44:48;;;;;;;5.45;0.90;;;10.70;99.90;;;;;;20376703;28;20047;-43
2021/10/21 08:54:49;;;;;;;4.07;1.58;;;10.90;99.90;;;;;;20401325;28;20039;-43
2021/10/21 09:04:57;;;;;;;1.23;0.15;;;11.00;99.90;;;;;;20425206;28;20043;-43
2021/10/21 09:15:09;;;;;;;1.60;0.10;;;11.10;99.90;;;;;;20439618;28;20043;-43
2021/10/21 09:25:10;;;;;;;6.50;0.50;;;11.00;99.90;;;;;;20415817;28;20048;-43
2021/10/21 09:35:14;;;;;;;2.72;0.80;;;11.00;99.90;;;;;;20421548;28;20527;-44
2021/10/21 09:45:20;;;;;;;0.40;0.15;;;11.10;99.90;;;;;;20433125;28;20553;-43
2021/10/21 09:55:26;;;;;;;3.00;0.65;;;11.10;99.90;;;;;;20445971;28;20581;-43
2021/10/21 10:05:28;;;;;;;2.00;0.50;;;11.00;99.90;;;;;;20456111;28;20086;-43
2021/10/21 10:15:29;;;;;;;0.22;0.10;;;11.20;99.90;;;;;;20411824;28;20063;-43
2021/10/21 10:25:31;;;;;;;1.65;0.50;;;11.20;99.90;;;;;;20398718;28;20115;-43
2021/10/21 10:35:36;;;;;;;2.45;0.35;;;11.00;99.90;;;;;;20440589;28;20059;-43
2021/10/21 10:45:39;;;;;;;6.38;0.57;;;11.10;99.90;;;;;;20394787;28;20040;-44
2021/10/21 10:55:52;;;;;;;0.15;0.10;;;11.10;99.90;;;;;;20345335;28;20035;-44
2021/10/21 11:05:55;;;;;;;0.98;0.35;;;10.70;99.90;;;;;;20411313;28;20066;-44
2021/10/21 11:15:56;;;;;;;0.38;0.10;;;10.30;99.90;;;;;;20395653;28;20560;-43
2021/10/21 11:26:02;;;;;;;0.65;0.00;;;10.00;99.90;;;;;;20420303;28;20066;-44
2021/10/21 11:36:03;;;;;;;0.60;0.28;;;9.80;99.90;;;;;;20416907;28;20060;-43
2021/10/21 11:46:07;;;;;;;2.28;0.50;;;9.70;99.90;;;;;;20412945;28;20544;-43
2021/10/21 11:56:10;;;;;;;2.20;0.10;;;9.80;99.90;;;;;;20377849;28;20059;-43
2021/10/21 12:06:15;;;;;;;2.53;0.28;;;9.80;99.90;;;;;;20398208;28;20055;-43
2021/10/21 12:16:21;;;;;;;1.67;0.75;;;10.20;99.90;;;;;;20391230;28;20050;-43
2021/10/21 12:26:31;;;;;;;0.85;0.30;;;11.10;99.90;;;;;;20396768;28;20047;-45
2021/10/21 12:36:34;;;;;;;3.58;0.10;;;12.10;99.90;;;;;;20404684;28;20047;-45
2021/10/21 12:46:35;;;;;;;3.15;0.70;;;10.50;99.90;;;;;;20418368;28;20512;-43
2021/10/21 12:56:39;;;;;;;3.45;0.68;;;10.10;99.90;;;;;;20392990;28;20055;-44
2021/10/21 13:06:40;;;;;;;2.13;0.30;;;10.00;99.90;;;;;;20393610;28;20660;-45
2021/10/21 13:16:41;;;;;;;1.20;0.50;;;9.70;99.90;;;;;;20427148;28;20046;-44
2021/10/21 13:26:42;;;;;;;0.80;0.35;;;9.40;99.90;;;;;;20414664;28;20494;-43
2021/10/21 13:36:44;;;;;;;3.90;0.70;;;10.80;99.90;;;;;;20412126;28;20477;-44
2021/10/21 13:46:45;;;;;;;3.28;0.82;;;11.10;99.90;;;;;;20426112;28;20054;-43
2021/10/21 13:56:46;;;;;;;3.95;0.52;;;10.70;99.90;;;;;;20427158;28;20044;-44
2021/10/21 14:06:47;;;;;;;4.10;0.47;;;11.60;99.90;;;;;;20417227;28;20047;-44
2021/10/21 14:16:49;;;;;;;2.13;0.47;;;12.70;99.90;;;;;;20429114;28;20047;-44
2021/10/21 14:26:51;;;;;;;4.55;1.50;;;12.50;99.90;;;;;;20426872;28;20036;-44
2021/10/21 14:36:52;;;;;;;4.38;0.50;;;12.70;99.90;;;;;;20431258;28;20054;-43
2021/10/21 14:46:53;;;;;;;9.20;0.75;;;11.90;99.90;;;;;;20434341;28;20054;-43
2021/10/21 14:56:55;;;;;;;1.45;0.38;;;11.50;99.90;;;;;;20439249;28;20370;-44
2021/10/21 15:27:21;;;;;;;3.92;0.70;;;10.80;99.90;;;;;;20399678;28;20513;-43
2021/10/21 15:37:23;;;;;;;2.33;0.40;;;10.50;99.90;;;;;;20427200;28;20468;-43
2021/10/21 15:47:41;;;;;;;4.97;1.30;;;10.50;99.90;;;;;;20410365;28;20047;-44
2021/10/21 16:18:22;;;;;;;2.50;0.50;;;9.80;99.90;;;;;;20422663;28;20039;-43
2021/10/21 16:28:23;;;;;;;1.00;0.20;;;9.20;99.90;;;;;;20433528;28;20056;-43
2021/10/21 16:38:25;;;;;;;2.17;0.25;;;9.00;99.90;;;;;;20431368;28;20043;-43
2021/10/21 16:48:26;;;;;;;4.13;0.63;;;8.80;99.90;;;;;;20422110;28;20039;-44
2021/10/21 16:58:27;;;;;;;2.28;0.55;;;8.60;99.90;;;;;;20458911;28;20047;-43
2021/10/21 17:08:31;;;;;;;3.30;0.43;;;8.50;99.90;;;;;;20443630;28;20052;-43
2021/10/21 17:18:32;;;;;;;1.80;0.32;;;8.30;99.90;;;;;;20450758;28;20051;-43
2021/10/21 17:28:33;;;;;;;0.65;0.13;;;8.40;99.90;;;;;;20442367;28;20055;-44
2021/10/21 17:38:35;;;;;;;2.13;0.45;;;8.60;99.90;;;;;;20431556;28;20036;-43
2021/10/21 17:48:37;;;;;;;5.82;0.50;;;8.70;99.90;;;;;;20445320;28;20062;-43
2021/10/21 17:58:38;;;;;;;2.38;0.60;;;8.70;99.90;;;;;;20428314;28;20043;-43
2021/10/21 18:08:40;;;;;;;4.82;1.98;;;8.60;99.90;;;;;;20418603;28;20051;-44
2021/10/21 18:18:41;;;;;;;1.20;0.20;;;8.50;99.90;;;;;;20449617;28;20039;-43
2021/10/21 18:28:44;;;;;;;4.47;0.43;;;8.50;99.90;;;;;;20423215;28;20068;-43
2021/10/21 18:38:45;;;;;;;4.70;0.30;;;8.50;99.90;;;;;;20454245;28;20698;-43
2021/10/21 18:48:46;;;;;;;1.20;0.50;;;8.60;99.90;;;;;;20457284;28;20050;-43
2021/10/21 18:58:48;;;;;;;2.38;0.35;;;8.60;99.90;;;;;;20448711;28;20047;-43
2021/10/21 19:08:50;;;;;;;2.35;0.20;;;8.60;99.90;;;;;;20447402;28;20134;-43
2021/10/21 19:18:52;;;;;;;1.13;0.30;;;8.50;99.90;;;;;;20443797;28;20027;-43
2021/10/21 19:28:53;;;;;;;4.75;0.30;;;8.50;99.90;;;;;;20446215;28;20078;-43
2021/10/21 19:38:54;;;;;;;1.40;0.75;;;8.40;99.90;;;;;;20442517;28;20047;-43
2021/10/21 19:48:56;;;;;;;1.67;0.40;;;8.20;99.90;;;;;;20432633;28;20055;-43
2021/10/21 19:58:58;;;;;;;3.08;0.60;;;8.30;99.90;;;;;;20431558;28;20047;-43
2021/10/21 20:08:59;;;;;;;6.65;0.50;;;8.30;99.90;;;;;;20429931;28;20402;-43
2021/10/21 20:19:01;;;;;;;2.38;1.02;;;8.40;99.90;;;;;;20431891;28;20074;-43
2021/10/21 20:29:02;;;;;;;1.00;0.30;;;8.60;99.90;;;;;;20437271;28;20421;-43
2021/10/21 20:39:04;;;;;;;2.55;1.55;;;8.80;99.90;;;;;;20432101;28;20496;-43
2021/10/21 20:49:07;;;;;;;1.38;0.25;;;8.60;99.90;;;;;;20427024;28;20044;-43
2021/10/21 20:59:09;;;;;;;3.90;0.50;;;8.40;99.90;;;;;;20429106;28;20417;-43
2021/10/21 21:09:10;;;;;;;0.73;0.20;;;8.50;99.90;;;;;;20406214;28;20740;-43
2021/10/21 21:19:11;;;;;;;7.53;0.43;;;8.30;99.90;;;;;;20419207;28;20042;-43
2021/10/21 21:29:12;;;;;;;2.20;0.40;;;8.20;99.90;;;;;;20400455;28;20046;-43
2021/10/21 21:39:14;;;;;;;13.60;1.10;;;8.00;99.90;;;;;;20409366;28;20084;-43
2021/10/21 21:49:15;;;;;;;1.10;0.20;;;7.90;99.90;;;;;;20433817;28;20065;-43
2021/10/21 21:59:16;;;;;;;1.00;0.30;;;8.00;99.90;;;;;;20424001;28;20052;-43
2021/10/21 22:09:17;;;;;;;2.33;0.40;;;7.90;99.90;;;;;;20434748;28;20055;-43
2021/10/21 22:19:25;;;;;;;1.17;0.60;;;7.70;99.90;;;;;;20438284;28;20043;-43
2021/10/21 22:29:26;;;;;;;10.25;0.70;;;7.70;99.90;;;;;;20414396;28;20048;-43
2021/10/21 22:39:27;;;;;;;1.77;0.63;;;7.70;99.90;;;;;;20447920;28;20159;-43
2021/10/21 22:49:30;;;;;;;4.70;0.40;;;7.60;99.90;;;;;;20417385;28;20055;-43
2021/10/21 22:59:33;;;;;;;2.03;0.25;;;7.60;99.90;;;;;;20409812;28;20052;-43
2021/10/21 23:09:34;;;;;;;1.83;0.40;;;7.50;99.90;;;;;;20431992;28;20050;-43
2021/10/21 23:19:35;;;;;;;1.77;0.32;;;7.40;99.90;;;;;;20433597;28;20042;-43
2021/10/21 23:29:36;;;;;;;4.28;1.75;;;7.40;99.90;;;;;;20425876;28;20139;-43
2021/10/21 23:39:37;;;;;;;1.83;0.73;;;7.40;99.90;;;;;;20427375;28;20031;-43
2021/10/21 23:49:39;;;;;;;0.93;0.43;;;7.40;99.90;;;;;;20407901;28;20058;-43
2021/10/21 23:59:40;;;;;;;2.95;0.60;;;7.50;99.90;;;;;;20425439;28;20051;-43
